createdAt,value
2023-03-26T00:00:11.638Z,99263.25
2023-03-26T00:05:15.065Z,99260.39
2023-03-26T00:10:17.019Z,99265.35
2023-03-26T00:15:18.995Z,99264.64
2023-03-26T00:20:20.668Z,99261.83
2023-03-26T00:25:23.882Z,99254.23
2023-03-26T00:30:26.142Z,99252.59
2023-03-26T00:35:29.581Z,99252.98
2023-03-26T00:40:32.107Z,99253.02
2023-03-26T00:45:33.621Z,99246.65
2023-03-26T00:50:35.596Z,99248.36
2023-03-26T00:55:37.454Z,99249.92
2023-03-26T01:00:46.840Z,99243.60
2023-03-26T01:05:53.013Z,99245.55
2023-03-26T01:11:03.493Z,99245.73
2023-03-26T01:16:20.206Z,99239.45
2023-03-26T01:21:30.490Z,99230.33
2023-03-26T01:26:32.059Z,99226.52
2023-03-26T01:31:43.627Z,99221.52
2023-03-26T01:36:53.634Z,99218.56
2023-03-26T01:42:02.951Z,99215.81
2023-03-26T01:47:06.446Z,99208.02
2023-03-26T01:52:16.614Z,99207.32
2023-03-26T01:57:27.357Z,99202.34
2023-03-26T02:02:44.768Z,99197.15
2023-03-26T02:08:05.529Z,99188.71
2023-03-26T02:13:07.347Z,99190.75
2023-03-26T02:18:13.548Z,99186.64
2023-03-26T02:23:15.810Z,99178.36
2023-03-26T02:28:17.298Z,99166.72
2023-03-26T02:33:18.805Z,99166.77
2023-03-26T02:38:20.897Z,99173.34
2023-03-26T02:43:22.767Z,99171.72
2023-03-26T02:48:24.282Z,99176.29
2023-03-26T02:53:29.981Z,99184.23
2023-03-26T02:58:31.914Z,99186.68
2023-03-26T03:03:34.594Z,99184.12
2023-03-26T03:08:36.295Z,99185.98
2023-03-26T03:13:37.871Z,99187.98
2023-03-26T03:18:39.496Z,99193.82
2023-03-26T03:23:41.032Z,99197.92
2023-03-26T03:28:43.424Z,99203.30
2023-03-26T03:33:46.700Z,99201.08
2023-03-26T03:38:49.050Z,99199.11
2023-03-26T03:43:52.253Z,99195.60
2023-03-26T03:48:53.794Z,99201.83
2023-03-26T03:53:55.940Z,99203.79
2023-03-26T03:58:58.480Z,99204.16
2023-03-26T04:04:00.703Z,99200.67
2023-03-26T04:09:02.563Z,99197.11
2023-03-26T04:14:04.138Z,99200.03
2023-03-26T04:19:05.690Z,99202.23
2023-03-26T04:24:07.441Z,99200.55
2023-03-26T04:29:12.993Z,99196.30
2023-03-26T04:34:26.428Z,99196.00
2023-03-26T04:39:29.398Z,99194.42
2023-03-26T04:44:32.390Z,99190.64
2023-03-26T04:49:33.919Z,99187.55
2023-03-26T04:54:36.269Z,99186.92
2023-03-26T04:59:37.768Z,99184.42
2023-03-26T05:04:43.953Z,99184.44
2023-03-26T05:09:45.736Z,99182.07
2023-03-26T05:14:47.549Z,99181.48
2023-03-26T05:19:49.236Z,99180.15
2023-03-26T05:24:51.320Z,99183.29
2023-03-26T05:29:52.826Z,99180.58
2023-03-26T05:34:54.349Z,99175.59
2023-03-26T05:39:56.334Z,99172.63
2023-03-26T05:44:57.834Z,99172.00
2023-03-26T05:49:59.521Z,99171.64
2023-03-26T05:55:01.618Z,99171.23
2023-03-26T06:00:06.263Z,99175.23
2023-03-26T06:05:08.620Z,99176.81
2023-03-26T06:10:10.978Z,99174.45
2023-03-26T06:15:20.040Z,99177.02
2023-03-26T06:20:21.607Z,99178.05
2023-03-26T06:25:23.134Z,99183.05
2023-03-26T06:30:24.734Z,99183.52
2023-03-26T06:35:26.552Z,99186.14
2023-03-26T06:40:29.084Z,99190.77
2023-03-26T06:45:33.117Z,99198.25
2023-03-26T06:50:34.666Z,99198.14
2023-03-26T06:55:36.180Z,99200.05
2023-03-26T07:00:38.073Z,99203.97
2023-03-26T07:05:42.694Z,99198.99
2023-03-26T07:10:44.300Z,99196.08
2023-03-26T07:15:46.367Z,99194.24
2023-03-26T07:20:48.300Z,99193.80
2023-03-26T07:25:50.472Z,99194.80
2023-03-26T07:31:27.288Z,99187.69
2023-03-26T07:36:47.270Z,99187.85
2023-03-26T07:42:16.485Z,99185.74
2023-03-26T07:47:29.863Z,99184.12
2023-03-26T07:52:31.740Z,99177.46
2023-03-26T07:57:50.202Z,99177.58
2023-03-26T08:03:34.674Z,99177.27
2023-03-26T08:08:50.999Z,99174.66
2023-03-26T08:14:14.485Z,99173.13
2023-03-26T08:19:22.540Z,99167.30
2023-03-26T08:24:39.028Z,99160.30
2023-03-26T08:30:01.712Z,99159.14
2023-03-26T08:35:04.499Z,99157.70
2023-03-26T08:40:07.176Z,99155.70
2023-03-26T08:45:40.369Z,99152.01
2023-03-26T08:50:59.345Z,99146.36
2023-03-26T08:56:42.340Z,99145.42
2023-03-26T09:02:24.372Z,99143.44
2023-03-26T09:07:48.964Z,99145.55
2023-03-26T09:13:06.348Z,99143.33
2023-03-26T09:18:32.603Z,99143.21
2023-03-26T09:24:03.489Z,99139.14
2023-03-26T09:29:32.295Z,99135.37
2023-03-26T09:35:11.883Z,99134.85
2023-03-26T09:40:20.618Z,99135.77
2023-03-26T09:45:53.018Z,99130.65
2023-03-26T09:51:12.076Z,99130.13
2023-03-26T09:56:26.476Z,99127.80
2023-03-26T10:02:08.594Z,99126.55
2023-03-26T10:07:45.015Z,99122.19
2023-03-26T10:12:57.712Z,99113.70
2023-03-26T10:18:30.591Z,99111.63
2023-03-26T10:23:34.811Z,99102.04
2023-03-26T10:28:56.935Z,99110.14
2023-03-26T10:34:28.883Z,99113.29
2023-03-26T10:39:46.995Z,99102.23
2023-03-26T10:45:17.902Z,99089.52
2023-03-26T10:50:57.340Z,99085.11
2023-03-26T10:56:16.814Z,99085.55
2023-03-26T11:01:28.958Z,99083.83
2023-03-26T11:06:41.962Z,99083.91
2023-03-26T11:11:48.388Z,99082.62
2023-03-26T11:17:09.040Z,99075.52
2023-03-26T11:22:41.405Z,99069.30
2023-03-26T11:27:53.104Z,99074.12
2023-03-26T11:32:59.870Z,99068.20
2023-03-26T11:38:17.272Z,99065.80
2023-03-26T11:43:26.613Z,99063.34
2023-03-26T11:48:33.333Z,99065.64
2023-03-26T11:53:38.726Z,99060.37
2023-03-26T11:59:01.213Z,99049.73
2023-03-26T12:04:11.179Z,99039.25
2023-03-26T12:09:17.720Z,99034.71
2023-03-26T12:14:24.566Z,99032.36
2023-03-26T12:19:29.154Z,99037.52
2023-03-26T12:24:36.444Z,99043.54
2023-03-26T12:29:38.386Z,99050.47
2023-03-26T12:34:40.749Z,99051.34
2023-03-26T12:40:09.450Z,99051.51
2023-03-26T12:45:07.141Z,99050.11
2023-03-26T12:50:14.646Z,99060.54
2023-03-26T12:55:45.906Z,99060.39
2023-03-26T13:00:57.171Z,99069.42
2023-03-26T13:06:06.967Z,99070.87
2023-03-26T13:11:30.642Z,99068.34
2023-03-26T13:16:48.587Z,99065.77
2023-03-26T13:22:24.777Z,99054.98
2023-03-26T13:27:42.013Z,99058.39
2023-03-26T13:33:15.901Z,99053.20
2023-03-26T13:38:40.727Z,99052.70
2023-03-26T13:43:48.288Z,99065.06
2023-03-26T13:49:05.552Z,99071.15
2023-03-26T13:54:09.900Z,99085.59
2023-03-26T13:59:40.634Z,99095.31
2023-03-26T14:04:49.563Z,99083.16
2023-03-26T14:10:01.828Z,99074.46
2023-03-26T14:15:26.674Z,99064.38
2023-03-26T14:20:56.560Z,99058.20
2023-03-26T14:26:19.818Z,99057.30
2023-03-26T14:31:51.498Z,99055.50
2023-03-26T14:37:27.031Z,99054.36
2023-03-26T14:42:37.399Z,99052.36
2023-03-26T14:47:55.483Z,99059.02
2023-03-26T14:53:01.792Z,99062.45
2023-03-26T14:58:36.848Z,99063.44
2023-03-26T15:04:16.855Z,99079.40
2023-03-26T15:09:56.372Z,99080.45
2023-03-26T15:14:57.890Z,99079.10
2023-03-26T15:20:36.844Z,99072.33
2023-03-26T15:26:16.042Z,99071.65
2023-03-26T15:31:37.305Z,99070.02
2023-03-26T15:37:17.696Z,99066.98
2023-03-26T15:42:52.400Z,99067.00
2023-03-26T15:48:12.451Z,99070.83
2023-03-26T15:53:26.638Z,99083.37
2023-03-26T15:58:44.191Z,99084.89
2023-03-26T16:04:06.021Z,99081.75
2023-03-26T16:09:40.417Z,99083.22
2023-03-26T16:15:20.137Z,99083.64
2023-03-26T16:20:35.291Z,99083.98
2023-03-26T16:25:54.635Z,99081.34
2023-03-26T16:31:23.486Z,99086.30
2023-03-26T16:36:35.523Z,99089.90
2023-03-26T16:41:39.854Z,99095.96
2023-03-26T16:47:13.875Z,99098.87
2023-03-26T16:52:34.571Z,99098.99
2023-03-26T16:57:45.935Z,99101.98
2023-03-26T17:03:13.106Z,99108.86
2023-03-26T17:08:14.938Z,99112.37
2023-03-26T17:13:55.450Z,99117.45
2023-03-26T17:19:28.172Z,99117.63
2023-03-26T17:24:55.870Z,99125.88
2023-03-26T17:30:23.883Z,99140.90
2023-03-26T17:35:45.076Z,99140.17
2023-03-26T17:40:55.203Z,99144.90
2023-03-26T17:46:02.876Z,99141.03
2023-03-26T17:51:33.638Z,99140.52
2023-03-26T17:56:37.877Z,99143.27
2023-03-26T18:01:44.420Z,99147.46
2023-03-26T18:07:16.718Z,99145.27
2023-03-26T18:12:41.420Z,99147.01
2023-03-26T18:17:46.286Z,99142.89
2023-03-26T18:22:49.476Z,99136.61
2023-03-26T18:27:51.492Z,99143.31
2023-03-26T18:33:00.992Z,99145.64
2023-03-26T18:38:04.098Z,99145.55
2023-03-26T18:43:06.125Z,99146.66
2023-03-26T18:48:10.541Z,99146.01
2023-03-26T18:53:29.878Z,99140.10
2023-03-26T18:58:39.157Z,99137.29
2023-03-26T19:03:44.642Z,99131.39
2023-03-26T19:08:48.262Z,99127.16
2023-03-26T19:14:04.488Z,99120.16
2023-03-26T19:19:07.573Z,99115.89
2023-03-26T19:24:12.040Z,99111.95
2023-03-26T19:29:17.344Z,99107.30
2023-03-26T19:34:31.681Z,99104.59
2023-03-26T19:39:44.083Z,99102.51
2023-03-26T19:44:46.312Z,99098.81
2023-03-26T19:49:51.268Z,99092.17
2023-03-26T19:54:59.125Z,99085.76
2023-03-26T20:00:07.903Z,99075.86
2023-03-26T20:05:19.557Z,99070.42
2023-03-26T20:10:21.136Z,99071.84
2023-03-26T20:15:25.730Z,99074.84
2023-03-26T20:20:30.692Z,99073.64
2023-03-26T20:25:33.961Z,99073.05
2023-03-26T20:30:38.036Z,99066.64
2023-03-26T20:35:39.881Z,99062.67
2023-03-26T20:40:42.402Z,99065.69
2023-03-26T20:45:45.901Z,99066.20
2023-03-26T20:50:50.764Z,99071.16
2023-03-26T20:55:52.575Z,99070.77
2023-03-26T21:00:56.955Z,99065.27
2023-03-26T21:06:04.073Z,99065.02
2023-03-26T21:11:16.114Z,99072.45
2023-03-26T21:16:28.592Z,99075.91
2023-03-26T21:21:47.652Z,99073.81
2023-03-26T21:27:12.906Z,99071.19
2023-03-26T21:32:15.097Z,99074.62
2023-03-26T21:37:19.057Z,99076.11
2023-03-26T21:42:20.905Z,99072.59
2023-03-26T21:47:23.252Z,99064.55
2023-03-26T21:52:25.389Z,99060.19
2023-03-26T21:57:45.388Z,99054.55
2023-03-26T22:03:08.409Z,99053.95
2023-03-26T22:08:25.059Z,99043.33
2023-03-26T22:13:27.308Z,99037.30
2023-03-26T22:18:30.121Z,99034.45
2023-03-26T22:23:36.708Z,99035.95
2023-03-26T22:28:38.427Z,99039.78
2023-03-26T22:33:43.477Z,99048.58
2023-03-26T22:38:45.552Z,99048.31
2023-03-26T22:43:47.434Z,99046.00
2023-03-26T22:48:49.374Z,99048.80
2023-03-26T22:53:52.075Z,99042.73
2023-03-26T22:58:53.578Z,99037.10
2023-03-26T23:03:55.096Z,99031.64
2023-03-26T23:08:57.162Z,99029.95
2023-03-26T23:13:59.188Z,99020.56
2023-03-26T23:19:00.734Z,99018.42
2023-03-26T23:24:02.754Z,99018.00
2023-03-26T23:29:05.193Z,99014.52
2023-03-26T23:34:07.042Z,99017.23
2023-03-26T23:39:09.391Z,99025.58
2023-03-26T23:44:14.499Z,99030.90
2023-03-26T23:49:16.239Z,99027.46
2023-03-26T23:54:19.166Z,99028.26
2023-03-26T23:59:21.056Z,99030.55
